createdAt,value
2022-09-02T00:00:14.200Z,1.10
2022-09-02T00:02:42.369Z,1.00
2022-09-02T00:05:10.493Z,0.98
2022-09-02T00:07:38.420Z,0.88
2022-09-02T00:10:06.980Z,0.90
2022-09-02T00:12:35.257Z,1.15
2022-09-02T00:15:03.233Z,0.90
2022-09-02T00:17:32.563Z,0.90
2022-09-02T00:20:00.488Z,1.10
2022-09-02T00:22:28.478Z,1.08
2022-09-02T00:24:56.419Z,0.80
2022-09-02T00:27:24.377Z,1.00
2022-09-02T00:29:53.334Z,1.00
2022-09-02T00:32:21.299Z,0.65
2022-09-02T00:34:50.653Z,0.90
2022-09-02T00:37:18.646Z,0.80
2022-09-02T00:39:46.463Z,0.90
2022-09-02T00:42:14.223Z,1.20
2022-09-02T00:44:42.477Z,0.85
2022-09-02T00:47:10.344Z,1.17
2022-09-02T00:49:42.881Z,1.10
2022-09-02T00:52:17.305Z,1.00
2022-09-02T00:54:49.322Z,1.00
2022-09-02T00:57:22.081Z,1.05
2022-09-02T00:59:58.003Z,0.90
2022-09-02T01:02:28.883Z,1.20
2022-09-02T01:04:58.535Z,1.00
2022-09-02T01:07:33.884Z,0.95
2022-09-02T01:10:02.778Z,1.00
2022-09-02T01:12:31.894Z,0.98
2022-09-02T01:14:59.784Z,0.80
2022-09-02T01:17:27.751Z,1.20
2022-09-02T01:19:58.631Z,1.00
2022-09-02T01:22:31.720Z,0.90
2022-09-02T01:25:06.224Z,0.88
2022-09-02T01:27:34.163Z,0.70
2022-09-02T01:30:02.541Z,0.95
2022-09-02T01:32:31.345Z,0.73
2022-09-02T01:34:59.312Z,0.80
2022-09-02T01:37:28.735Z,0.98
2022-09-02T01:39:57.621Z,0.90
2022-09-02T01:42:26.271Z,1.10
2022-09-02T01:44:54.357Z,1.00
2022-09-02T01:47:25.355Z,0.90
2022-09-02T01:49:53.787Z,1.00
2022-09-02T01:52:23.895Z,1.00
2022-09-02T01:54:53.727Z,1.00
2022-09-02T01:57:26.051Z,1.17
2022-09-02T01:59:54.382Z,1.00
2022-09-02T02:02:22.851Z,1.02
2022-09-02T02:04:51.582Z,0.90
2022-09-02T02:07:20.772Z,0.98
2022-09-02T02:09:48.621Z,1.00
2022-09-02T02:12:18.413Z,1.23
2022-09-02T02:14:46.280Z,1.00
2022-09-02T02:17:14.163Z,1.25
2022-09-02T02:19:42.205Z,0.90
2022-09-02T02:22:10.354Z,1.58
2022-09-02T02:24:39.226Z,1.15
2022-09-02T02:27:07.064Z,0.80
2022-09-02T02:29:36.208Z,0.95
2022-09-02T02:32:05.036Z,1.07
2022-09-02T02:34:32.849Z,0.90
2022-09-02T02:37:00.838Z,0.90
2022-09-02T02:39:28.858Z,1.00
2022-09-02T02:41:56.688Z,1.00
2022-09-02T02:44:24.783Z,0.80
2022-09-02T02:46:54.799Z,1.30
2022-09-02T02:49:23.174Z,0.97
2022-09-02T02:51:51.196Z,1.10
2022-09-02T02:54:19.017Z,0.82
2022-09-02T02:56:46.900Z,1.00
2022-09-02T02:59:14.832Z,1.03
2022-09-02T03:01:42.951Z,1.20
2022-09-02T03:04:12.359Z,0.90
2022-09-02T03:06:40.188Z,1.00
2022-09-02T03:09:08.035Z,1.00
2022-09-02T03:11:35.832Z,1.00
2022-09-02T03:14:05.710Z,1.10
2022-09-02T03:16:35.402Z,1.10
2022-09-02T03:19:03.877Z,1.17
2022-09-02T03:21:38.828Z,1.05
2022-09-02T03:24:07.795Z,1.00
2022-09-02T03:26:35.636Z,0.90
2022-09-02T03:29:03.966Z,1.08
2022-09-02T03:31:31.851Z,1.00
2022-09-02T03:34:00.312Z,1.10
2022-09-02T03:36:30.811Z,1.10
2022-09-02T03:39:00.551Z,1.00
2022-09-02T03:41:28.364Z,1.03
2022-09-02T03:43:57.566Z,1.00
2022-09-02T03:46:25.599Z,1.07
2022-09-02T03:48:53.508Z,0.90
2022-09-02T03:51:22.288Z,1.10
2022-09-02T03:53:50.375Z,1.00
2022-09-02T03:56:20.153Z,1.10
2022-09-02T03:58:50.902Z,1.00
2022-09-02T04:01:20.717Z,1.30
2022-09-02T04:03:49.028Z,0.97
2022-09-02T04:06:18.587Z,1.00
2022-09-02T04:08:46.453Z,1.00
2022-09-02T04:11:17.749Z,1.00
2022-09-02T04:13:48.081Z,1.00
2022-09-02T04:16:18.937Z,1.10
2022-09-02T04:18:46.800Z,1.10
2022-09-02T04:21:15.908Z,1.00
2022-09-02T04:23:44.522Z,1.00
2022-09-02T04:26:15.759Z,1.20
2022-09-02T04:28:43.770Z,0.97
2022-09-02T04:31:14.917Z,1.20
2022-09-02T04:33:43.080Z,0.90
2022-09-02T04:36:14.708Z,1.10
2022-09-02T04:38:43.332Z,1.10
2022-09-02T04:41:12.903Z,1.10
2022-09-02T04:43:40.983Z,1.10
2022-09-02T04:46:13.517Z,0.90
2022-09-02T04:48:44.252Z,1.20
2022-09-02T04:51:13.680Z,1.20
2022-09-02T04:53:42.646Z,1.13
2022-09-02T04:56:14.805Z,1.07
2022-09-02T04:58:44.312Z,1.37
2022-09-02T05:01:16.588Z,1.10
2022-09-02T05:03:45.818Z,1.10
2022-09-02T05:06:15.785Z,0.93
2022-09-02T05:08:43.872Z,1.20
2022-09-02T05:11:16.700Z,1.20
2022-09-02T05:13:44.509Z,1.30
2022-09-02T05:16:16.821Z,1.10
2022-09-02T05:18:45.004Z,1.10
2022-09-02T05:21:14.017Z,1.23
2022-09-02T05:23:42.331Z,1.73
2022-09-02T05:26:11.788Z,1.20
2022-09-02T05:28:40.616Z,1.20
2022-09-02T05:31:12.433Z,1.30
2022-09-02T05:33:43.802Z,1.10
2022-09-02T05:36:13.539Z,1.30
2022-09-02T05:38:42.431Z,1.30
2022-09-02T05:41:11.984Z,1.50
2022-09-02T05:43:41.325Z,1.33
2022-09-02T05:46:12.110Z,1.30
2022-09-02T05:48:58.927Z,1.30
2022-09-02T05:51:26.893Z,1.20
2022-09-02T05:53:55.956Z,1.40
2022-09-02T05:56:24.631Z,1.30
2022-09-02T05:58:53.412Z,1.27
2022-09-02T06:01:21.416Z,1.80
2022-09-02T06:03:52.332Z,1.90
2022-09-02T06:06:23.775Z,1.20
2022-09-02T06:08:51.624Z,1.60
2022-09-02T06:11:19.863Z,1.53
2022-09-02T06:13:48.711Z,1.50
2022-09-02T06:16:19.260Z,1.20
2022-09-02T06:18:47.572Z,1.23
2022-09-02T06:21:17.614Z,1.40
2022-09-02T06:23:45.973Z,1.53
2022-09-02T06:26:14.962Z,1.30
2022-09-02T06:28:43.252Z,1.30
2022-09-02T06:31:13.110Z,1.60
2022-09-02T06:33:40.968Z,1.50
2022-09-02T06:36:10.249Z,1.43
2022-09-02T06:38:45.874Z,1.37
2022-09-02T06:41:16.879Z,1.60
2022-09-02T06:43:44.858Z,1.43
2022-09-02T06:46:18.393Z,1.77
2022-09-02T06:48:49.932Z,1.60
2022-09-02T06:51:18.835Z,1.73
2022-09-02T06:53:48.163Z,1.73
2022-09-02T06:56:16.568Z,1.97
2022-09-02T06:58:44.679Z,1.80
2022-09-02T07:01:19.491Z,1.80
2022-09-02T07:04:04.803Z,1.70
2022-09-02T07:06:36.926Z,2.00
2022-09-02T07:09:07.824Z,1.80
2022-09-02T07:11:36.595Z,1.60
2022-09-02T07:14:05.153Z,1.90
2022-09-02T07:16:36.717Z,1.83
2022-09-02T07:19:12.499Z,1.80
2022-09-02T07:21:42.492Z,1.80
2022-09-02T07:24:13.795Z,2.00
2022-09-02T07:26:41.911Z,2.10
2022-09-02T07:29:10.701Z,2.10
2022-09-02T07:31:39.814Z,2.10
2022-09-02T07:34:09.888Z,2.20
2022-09-02T07:36:38.505Z,1.87
2022-09-02T07:39:08.147Z,2.20
2022-09-02T07:41:38.443Z,1.90
2022-09-02T07:44:07.798Z,2.20
2022-09-02T07:46:37.068Z,1.90
2022-09-02T07:49:09.355Z,2.05
2022-09-02T07:51:39.967Z,2.27
2022-09-02T07:54:09.130Z,2.20
2022-09-02T07:56:38.384Z,1.90
2022-09-02T07:59:06.271Z,2.53
2022-09-02T08:01:34.325Z,2.40
2022-09-02T08:04:05.631Z,2.20
2022-09-02T08:06:35.354Z,2.40
2022-09-02T08:09:04.563Z,2.13
2022-09-02T08:11:32.775Z,2.55
2022-09-02T08:14:03.072Z,2.15
2022-09-02T08:16:30.926Z,2.50
2022-09-02T08:18:59.080Z,2.47
2022-09-02T08:21:26.912Z,2.45
2022-09-02T08:23:54.754Z,2.45
2022-09-02T08:26:22.981Z,2.63
2022-09-02T08:28:51.288Z,2.50
2022-09-02T08:31:20.459Z,2.90
2022-09-02T08:33:48.505Z,2.45
2022-09-02T08:36:16.359Z,3.00
2022-09-02T08:38:44.475Z,2.85
2022-09-02T08:41:22.584Z,2.25
2022-09-02T08:43:52.147Z,2.78
2022-09-02T08:46:25.825Z,2.47
2022-09-02T08:48:57.924Z,2.88
2022-09-02T08:51:37.441Z,2.80
2022-09-02T08:54:08.884Z,2.55
2022-09-02T08:56:36.699Z,2.80
2022-09-02T08:59:07.031Z,2.78
2022-09-02T09:01:44.325Z,2.97
2022-09-02T09:04:21.663Z,3.10
2022-09-02T09:07:11.448Z,3.03
2022-09-02T09:09:51.556Z,2.63
2022-09-02T09:12:28.908Z,3.20
2022-09-02T09:15:04.052Z,2.90
2022-09-02T09:17:41.144Z,3.17
2022-09-02T09:20:16.498Z,2.70
2022-09-02T09:22:45.104Z,3.20
2022-09-02T09:25:16.351Z,3.40
2022-09-02T09:27:46.319Z,2.72
2022-09-02T09:30:15.763Z,3.22
2022-09-02T09:32:48.745Z,3.20
2022-09-02T09:35:17.566Z,3.40
2022-09-02T09:37:47.990Z,3.30
2022-09-02T09:40:25.193Z,3.03
2022-09-02T09:42:57.048Z,3.70
2022-09-02T09:45:32.159Z,3.40
2022-09-02T09:48:18.727Z,2.80
2022-09-02T09:50:47.981Z,3.55
2022-09-02T09:53:16.997Z,3.20
2022-09-02T09:55:54.411Z,3.60
2022-09-02T09:58:23.708Z,2.95
2022-09-02T10:00:56.337Z,2.70
2022-09-02T10:03:32.830Z,2.97
2022-09-02T10:06:19.727Z,2.97
2022-09-02T10:08:54.021Z,2.97
2022-09-02T10:11:24.770Z,2.58
2022-09-02T10:13:54.171Z,3.38
2022-09-02T10:16:48.142Z,3.15
2022-09-02T10:19:26.504Z,3.03
2022-09-02T10:22:10.444Z,3.28
2022-09-02T10:24:52.692Z,3.88
2022-09-02T10:27:29.619Z,3.50
2022-09-02T10:30:04.354Z,3.35
2022-09-02T10:32:48.769Z,3.20
2022-09-02T10:35:24.336Z,3.17
2022-09-02T10:38:13.051Z,3.00
2022-09-02T10:40:47.097Z,3.05
2022-09-02T10:43:28.119Z,3.65
2022-09-02T10:46:00.420Z,3.47
2022-09-02T10:48:38.687Z,3.22
2022-09-02T10:51:16.379Z,3.90
2022-09-02T10:54:03.192Z,3.35
2022-09-02T10:56:37.016Z,3.25
2022-09-02T10:59:10.713Z,3.58
2022-09-02T11:01:46.512Z,2.95
2022-09-02T11:04:25.146Z,3.30
2022-09-02T11:07:02.837Z,3.00
2022-09-02T11:09:36.754Z,3.30
2022-09-02T11:12:10.972Z,3.03
2022-09-02T11:14:49.110Z,2.90
2022-09-02T11:17:24.942Z,3.30
2022-09-02T11:19:58.645Z,3.25
2022-09-02T11:22:34.332Z,2.83
2022-09-02T11:25:09.076Z,3.10
2022-09-02T11:27:43.014Z,3.10
2022-09-02T11:30:15.481Z,2.70
2022-09-02T11:32:50.366Z,2.50
2022-09-02T11:35:21.488Z,3.22
2022-09-02T11:37:53.771Z,2.67
2022-09-02T11:40:34.932Z,2.67
2022-09-02T11:43:28.947Z,2.63
2022-09-02T11:46:22.908Z,2.88
2022-09-02T11:49:27.186Z,2.47
2022-09-02T11:52:19.726Z,2.20
2022-09-02T11:54:57.478Z,2.50
2022-09-02T11:57:28.683Z,2.42
2022-09-02T12:00:23.743Z,2.33
2022-09-02T12:02:53.362Z,2.88
2022-09-02T12:05:51.926Z,3.00
2022-09-02T12:09:02.895Z,2.72
2022-09-02T12:11:53.103Z,2.38
2022-09-02T12:15:06.232Z,2.60
2022-09-02T12:17:40.590Z,2.50
2022-09-02T12:20:10.410Z,2.38
2022-09-02T12:22:39.971Z,2.42
2022-09-02T12:25:38.253Z,2.50
2022-09-02T12:28:30.632Z,2.55
2022-09-02T12:31:40.444Z,2.45
2022-09-02T12:34:41.864Z,2.45
2022-09-02T12:37:11.395Z,2.30
2022-09-02T12:39:59.543Z,2.45
2022-09-02T12:42:33.352Z,2.35
2022-09-02T12:45:10.892Z,2.28
2022-09-02T12:47:50.710Z,2.88
2022-09-02T12:50:26.143Z,2.25
2022-09-02T12:53:10.150Z,2.30
2022-09-02T12:55:39.652Z,2.80
2022-09-02T12:58:09.776Z,2.58
2022-09-02T13:00:55.525Z,2.28
2022-09-02T13:03:49.260Z,2.20
2022-09-02T13:06:26.336Z,1.80
2022-09-02T13:09:31.092Z,1.65
2022-09-02T13:12:30.496Z,1.67
2022-09-02T13:15:06.471Z,2.15
2022-09-02T13:17:49.225Z,1.77
2022-09-02T13:20:42.296Z,1.90
2022-09-02T13:23:46.751Z,1.55
2022-09-02T13:26:48.905Z,1.88
2022-09-02T13:29:43.978Z,1.90
2022-09-02T13:32:22.079Z,1.85
2022-09-02T13:34:55.032Z,2.00
2022-09-02T13:37:36.730Z,1.85
2022-09-02T13:40:08.688Z,2.22
2022-09-02T13:42:37.343Z,2.00
2022-09-02T13:45:16.401Z,1.83
2022-09-02T13:47:46.299Z,2.50
2022-09-02T13:50:19.127Z,2.05
2022-09-02T13:55:43.740Z,2.25
2022-09-02T13:58:25.262Z,2.17
2022-09-02T14:00:53.262Z,2.30
2022-09-02T14:03:25.818Z,2.22
2022-09-02T14:05:57.212Z,2.35
2022-09-02T14:08:27.636Z,2.25
2022-09-02T14:10:55.990Z,2.33
2022-09-02T14:13:24.505Z,2.40
2022-09-02T14:15:52.418Z,2.50
2022-09-02T14:18:22.322Z,2.33
2022-09-02T14:20:58.904Z,2.13
2022-09-02T14:23:28.631Z,1.98
2022-09-02T14:25:58.210Z,2.00
2022-09-02T14:28:28.159Z,2.10
2022-09-02T14:30:58.938Z,1.85
2022-09-02T14:33:37.747Z,1.83
2022-09-02T14:36:08.744Z,1.70
2022-09-02T14:38:38.872Z,1.90
2022-09-02T14:41:12.761Z,2.22
2022-09-02T14:43:46.897Z,2.03
2022-09-02T14:46:27.409Z,2.08
2022-09-02T14:48:59.750Z,2.30
2022-09-02T14:51:35.450Z,2.05
2022-09-02T14:54:03.494Z,1.98
2022-09-02T14:56:48.945Z,2.10
2022-09-02T14:59:16.790Z,2.13
2022-09-02T15:01:47.679Z,1.90
2022-09-02T15:04:16.231Z,2.00
2022-09-02T15:06:45.404Z,2.00
2022-09-02T15:09:16.390Z,2.05
2022-09-02T15:11:48.827Z,1.75
2022-09-02T15:14:16.668Z,2.03
2022-09-02T15:16:44.456Z,1.95
2022-09-02T15:19:12.294Z,1.92
2022-09-02T15:21:40.319Z,1.65
2022-09-02T15:24:09.612Z,2.08
2022-09-02T15:26:37.455Z,1.80
2022-09-02T15:29:05.264Z,1.60
2022-09-02T15:31:33.084Z,1.70
2022-09-02T15:34:01.833Z,1.92
2022-09-02T15:36:31.322Z,1.70
2022-09-02T15:39:00.562Z,1.63
2022-09-02T15:41:31.456Z,1.90
2022-09-02T15:44:00.567Z,2.05
2022-09-02T15:46:29.880Z,1.95
2022-09-02T15:49:02.664Z,2.17
2022-09-02T15:51:30.738Z,1.90
2022-09-02T15:53:59.643Z,1.60
2022-09-02T15:56:31.010Z,1.75
2022-09-02T15:59:00.042Z,1.95
2022-09-02T16:01:29.658Z,1.98
2022-09-02T16:03:57.976Z,1.90
2022-09-02T16:06:26.179Z,2.05
2022-09-02T16:08:54.091Z,2.20
2022-09-02T16:11:22.543Z,2.63
2022-09-02T16:13:52.335Z,1.70
2022-09-02T16:16:20.191Z,2.10
2022-09-02T16:18:51.632Z,2.17
2022-09-02T16:21:20.036Z,2.30
2022-09-02T16:23:49.243Z,2.20
2022-09-02T16:26:22.895Z,2.08
2022-09-02T16:28:53.767Z,2.53
2022-09-02T16:31:22.588Z,2.75
2022-09-02T16:33:54.779Z,2.40
2022-09-02T16:36:23.275Z,2.03
2022-09-02T16:38:52.762Z,1.90
2022-09-02T16:41:27.177Z,1.90
2022-09-02T16:43:58.188Z,1.80
2022-09-02T16:46:27.185Z,2.10
2022-09-02T16:48:55.907Z,2.03
2022-09-02T16:51:24.899Z,2.20
2022-09-02T16:53:55.146Z,2.17
2022-09-02T16:56:24.634Z,1.80
2022-09-02T16:58:53.496Z,2.15
2022-09-02T17:01:23.496Z,1.95
2022-09-02T17:03:51.607Z,2.00
2022-09-02T17:06:19.572Z,1.80
2022-09-02T17:08:48.856Z,1.83
2022-09-02T17:11:22.230Z,2.00
2022-09-02T17:13:51.372Z,2.35
2022-09-02T17:16:21.122Z,1.98
2022-09-02T17:18:50.316Z,2.10
2022-09-02T17:21:31.547Z,2.50
2022-09-02T17:23:59.408Z,2.00
2022-09-02T17:26:28.823Z,1.92
2022-09-02T17:28:57.627Z,1.80
2022-09-02T17:31:27.274Z,2.13
2022-09-02T17:33:57.931Z,2.00
2022-09-02T17:36:27.323Z,2.00
2022-09-02T17:38:57.405Z,1.98
2022-09-02T17:41:43.368Z,3.13
2022-09-02T17:44:12.127Z,2.90
2022-09-02T17:46:40.153Z,2.88
2022-09-02T17:49:17.822Z,2.20
2022-09-02T17:51:46.454Z,2.13
2022-09-02T17:54:15.169Z,1.70
2022-09-02T17:57:01.886Z,2.03
2022-09-02T17:59:39.882Z,2.40
2022-09-02T18:02:34.427Z,2.08
2022-09-02T18:05:16.484Z,3.10
2022-09-02T18:07:50.895Z,2.30
2022-09-02T18:10:18.875Z,2.35
2022-09-02T18:12:47.121Z,2.38
2022-09-02T18:15:18.647Z,2.35
2022-09-02T18:17:49.673Z,2.22
2022-09-02T18:20:27.903Z,2.30
2022-09-02T18:23:24.010Z,2.40
2022-09-02T18:25:59.004Z,2.63
2022-09-02T18:28:45.384Z,2.40
2022-09-02T18:31:30.644Z,2.50
2022-09-02T18:34:35.134Z,2.80
2022-09-02T18:37:13.483Z,2.40
2022-09-02T18:40:00.600Z,2.28
2022-09-02T18:42:39.713Z,2.65
2022-09-02T18:45:14.832Z,2.45
2022-09-02T18:47:48.828Z,2.50
2022-09-02T18:50:51.100Z,2.85
2022-09-02T18:53:19.394Z,2.67
2022-09-02T18:55:49.388Z,2.58
2022-09-02T18:58:31.626Z,2.90
2022-09-02T19:01:03.362Z,2.80
2022-09-02T19:03:35.525Z,2.63
2022-09-02T19:06:05.981Z,2.50
2022-09-02T19:08:34.663Z,2.60
2022-09-02T19:11:05.655Z,2.67
2022-09-02T19:13:43.986Z,2.50
2022-09-02T19:16:11.981Z,2.63
2022-09-02T19:18:40.951Z,2.75
2022-09-02T19:21:09.114Z,2.50
2022-09-02T19:23:38.511Z,2.78
2022-09-02T19:26:06.725Z,2.83
2022-09-02T19:28:34.540Z,3.05
2022-09-02T19:31:04.208Z,2.67
2022-09-02T19:33:34.854Z,2.80
2022-09-02T19:36:02.775Z,3.15
2022-09-02T19:38:30.587Z,3.20
2022-09-02T19:41:01.643Z,2.85
2022-09-02T19:43:29.435Z,3.10
2022-09-02T19:46:01.263Z,2.75
2022-09-02T19:48:29.164Z,2.97
2022-09-02T19:50:57.059Z,2.47
2022-09-02T19:53:29.948Z,2.90
2022-09-02T19:55:59.847Z,2.60
2022-09-02T19:58:27.874Z,2.40
2022-09-02T20:00:56.951Z,2.50
2022-09-02T20:03:24.862Z,2.30
2022-09-02T20:05:53.516Z,2.33
2022-09-02T20:08:22.094Z,2.17
2022-09-02T20:10:55.142Z,2.42
2022-09-02T20:13:25.208Z,2.13
2022-09-02T20:15:53.890Z,2.55
2022-09-02T20:18:23.465Z,2.17
2022-09-02T20:20:54.768Z,2.40
2022-09-02T20:23:23.536Z,2.10
2022-09-02T20:26:14.840Z,2.15
2022-09-02T20:28:57.482Z,2.30
2022-09-02T20:31:39.680Z,2.00
2022-09-02T20:34:19.550Z,1.90
2022-09-02T20:36:56.154Z,1.80
2022-09-02T20:39:41.329Z,2.10
2022-09-02T20:42:27.571Z,2.08
2022-09-02T20:45:05.116Z,1.65
2022-09-02T20:47:44.703Z,2.00
2022-09-02T20:50:26.598Z,2.22
2022-09-02T20:53:09.608Z,1.90
2022-09-02T20:55:45.007Z,2.30
2022-09-02T20:58:22.302Z,2.13
2022-09-02T21:01:04.570Z,1.88
2022-09-02T21:03:39.833Z,2.03
2022-09-02T21:06:11.196Z,1.90
2022-09-02T21:08:47.076Z,1.83
2022-09-02T21:11:16.555Z,2.20
2022-09-02T21:13:49.392Z,1.90
2022-09-02T21:16:22.132Z,2.20
2022-09-02T21:19:01.619Z,2.05
2022-09-02T21:21:36.246Z,2.00
2022-09-02T21:24:09.287Z,1.70
2022-09-02T21:26:42.928Z,2.00
2022-09-02T21:29:16.166Z,2.08
2022-09-02T21:31:49.771Z,2.03
2022-09-02T21:34:24.656Z,2.03
2022-09-02T21:36:55.768Z,1.80
2022-09-02T21:39:26.572Z,1.80
2022-09-02T21:42:09.432Z,1.90
2022-09-02T21:44:49.567Z,1.80
2022-09-02T21:47:25.528Z,1.80
2022-09-02T21:50:04.047Z,1.90
2022-09-02T21:52:46.677Z,1.90
2022-09-02T21:55:27.746Z,1.75
2022-09-02T21:58:12.822Z,1.70
2022-09-02T22:00:48.118Z,1.63
2022-09-02T22:03:24.555Z,1.83
2022-09-02T22:05:58.420Z,1.85
2022-09-02T22:08:33.659Z,1.80
2022-09-02T22:11:09.699Z,1.80
2022-09-02T22:13:40.160Z,1.70
2022-09-02T22:16:25.407Z,1.95
2022-09-02T22:19:01.716Z,1.80
2022-09-02T22:21:39.809Z,2.03
2022-09-02T22:24:08.303Z,1.65
2022-09-02T22:26:41.003Z,2.00
2022-09-02T22:29:16.699Z,1.88
2022-09-02T22:31:46.548Z,2.33
2022-09-02T22:34:18.585Z,1.95
2022-09-02T22:36:56.207Z,1.77
2022-09-02T22:39:34.059Z,1.85
2022-09-02T22:42:12.608Z,1.90
2022-09-02T22:45:03.544Z,1.73
2022-09-02T22:47:51.739Z,1.90
2022-09-02T22:50:44.852Z,1.73
2022-09-02T22:53:12.993Z,1.70
2022-09-02T22:55:48.556Z,1.88
2022-09-02T22:58:35.426Z,1.88
2022-09-02T23:01:15.843Z,2.00
2022-09-02T23:03:53.407Z,1.75
2022-09-02T23:06:27.836Z,1.80
2022-09-02T23:08:56.505Z,1.92
2022-09-02T23:11:31.733Z,2.22
2022-09-02T23:14:09.964Z,2.05
2022-09-02T23:16:59.486Z,3.88
2022-09-02T23:19:37.075Z,2.15
2022-09-02T23:22:13.053Z,1.90
2022-09-02T23:24:47.439Z,1.60
2022-09-02T23:27:26.903Z,1.70
2022-09-02T23:29:55.674Z,1.92
2022-09-02T23:32:43.542Z,1.70
2022-09-02T23:35:20.939Z,1.85
2022-09-02T23:38:05.355Z,1.90
2022-09-02T23:40:39.623Z,1.95
2022-09-02T23:43:07.912Z,1.80
2022-09-02T23:45:36.791Z,1.52
2022-09-02T23:48:28.628Z,1.77
2022-09-02T23:51:09.052Z,1.95
2022-09-02T23:53:42.847Z,2.00
2022-09-02T23:56:23.512Z,1.80
2022-09-02T23:59:02.774Z,2.00
